KJOT/JOT METAR and TAF weather

Enter ICAO airport designator
Station Type Date Time Source
KJOT METAR 2019/10/15 18:35 UTC NOAA

KJOT 151835Z AUTO 19009KT 10SM OVC020 18/12 A2975 RMK AO2 LTG DSNT NW T01750124


Station Type Date Time Source
KJOT Decoded METAR 2019/10/15 18:35 UTC NOAA

Joliet, Joliet Regional Airport, IL, United States (KJOT) 41-31-05N 088-10-31W
Oct 15, 2019 - 02:35 PM EDT / 2019.10.15 1835 UTC
Wind: from the S (190 degrees) at 10 MPH (9 KT):0
Visibility: 10 mile(s):0
Sky conditions: overcast
Weather: Lightning observed
Temperature: 63.5 F (17.5 C)
Dew Point: 54.3 F (12.4 C)
Relative Humidity: 71%
Pressure (altimeter): 29.75 in. Hg (1007 hPa)
ob: KJOT 151835Z AUTO 19009KT 10SM OVC020 18/12 A2975 RMK AO2 LTG DSNT NW T01750124
cycle: 18

Station Type Date Time Source
KJOT TAF UTC NOAA

Error!

Example: see airport list